Bienvenue sur les bases de données OCEANO
EduMed-Obs > Data Center > Vous êtes dans l'espace des données "OCEANO"

Au coeur des mers et des océans !





Retrouvez ci-dessous le parcours de La Louise, et ses données météo (données METEO FRANCE)

dans le cadre du projet de recherche interdisciplinaire Antarctique 2.0°C , porté par l'Association "juste 2.0°C".


Le bateau La Louise



Et l'équipe Antarctique 2.0°C



Vous souhaitez visiter La Louise ? Alors montez à bord !


Le trajet de La Louise depuis son départ de Marseille, le 6 octobre 2021



Espace de téléchargement des données au format .CSV, et du trajet au format .KML


Les données météo tansmises par la Louise (données Météo France)

date latitude (deg) longitude (deg) pression atmospherique (HPa) vitesse du vent (m/s) direction du vent (deg) temperature air (degC) temperature mer (degC) humidite (deg)
2021-10-30 03:00 -2.97 -30.36 1012.2 Null Null 26.0 27.8 Null
2021-10-30 02:00 -2.87 -30.31 1013.0 Null 300 27.3 27.8 76
2021-10-30 01:00 -2.77 -30.27 1013.8 Null 290 27.3 27.8 75
2021-10-30 00:00 -2.67 -30.22 1014.1 Null 290 27.4 27.8 73
2021-10-09 16:00 37.25 -1.28 1018.5 Null 270 22.6 24.5 72
2021-10-09 15:00 37.31 -1.19 1018.8 Null 270 22.8 24.8 70
2021-10-09 14:00 37.36 -1.1 1019.1 Null 270 23.2 24.8 69
2021-10-09 13:00 37.41 -1.03 1019.5 Null 270 23.2 24.8 67
2021-10-09 12:00 37.47 -0.94 1020.0 Null 300 23.6 24.8 64
2021-10-09 11:00 37.51 -0.87 1020.4 Null 270 23.1 24.4 66
2021-10-09 10:00 37.53 -0.82 1020.5 Null 270 23.5 24.5 64
2021-10-09 09:00 37.58 -0.74 1020.3 Null 80 22.7 24.2 70
2021-10-09 07:00 37.68 -0.61 1019.3 Null 50 21.5 24.3 82
2021-10-09 06:00 37.75 -0.55 1018.7 Null 350 22.1 24.3 71
2021-10-09 05:00 37.82 -0.5 1018.5 Null 340 22.1 24.2 70
2021-10-09 04:00 37.89 -0.46 1018.6 Null 350 22.1 24.1 67
2021-10-09 03:00 37.97 -0.42 1018.7 Null 350 22.3 24.1 66
2021-10-09 02:00 38.04 -0.37 1018.7 Null 350 22.3 24.1 67
2021-10-09 01:00 38.1 -0.31 1019.0 Null 340 22.4 24.5 68
2021-10-09 00:00 38.17 -0.26 1019.0 Null 330 22.5 24.4 67
2021-10-08 23:00 38.23 -0.2 1019.4 Null 340 22.6 24.3 66
2021-10-08 22:00 38.3 -0.15 1019.5 Null 320 22.7 24.3 64
2021-10-08 21:00 38.37 -0.08 1019.6 Null 310 22.7 24.4 65
2021-10-08 20:00 38.44 -0.01 1019.3 Null 340 22.6 24.5 66
2021-10-08 19:00 38.52 0.04 1019.0 Null 330 22.6 25.0 67
2021-10-08 18:00 38.59 0.1 1018.8 Null 340 22.6 24.8 68
2021-10-08 17:00 38.67 0.17 1018.4 Null 340 22.7 24.9 69
2021-10-08 16:00 38.74 0.24 1018.2 Null 310 23.0 24.8 67
2021-10-08 15:00 38.79 0.3 1018.3 Null 270 22.7 24.6 66
2021-10-08 14:00 38.87 0.37 1018.5 Null 260 22.4 24.4 68
2021-10-08 13:00 38.93 0.44 1018.9 Null 260 22.8 24.2 65
2021-10-08 12:00 38.99 0.5 1019.7 Null 250 23.0 24.3 60
2021-10-08 11:00 39.04 0.55 1020.1 Null 260 23.3 24.5 62
2021-10-08 10:00 39.08 0.58 1020.1 Null 260 23.2 24.2 61
2021-10-08 09:00 39.15 0.63 1019.9 Null 280 23.4 23.8 57
2021-10-08 08:00 39.23 0.7 1019.5 Null 280 23.6 23.7 53
2021-10-08 07:00 39.32 0.77 1019.4 Null 240 22.6 23.8 56
2021-10-08 06:00 39.4 0.84 1018.9 Null 260 21.8 24.3 61
2021-10-08 05:00 39.49 0.91 1018.8 Null 270 21.8 24.2 59
2021-10-08 04:00 39.57 0.98 1018.6 Null 310 21.9 24.5 59
2021-10-08 03:00 39.65 1.06 1018.7 Null 310 21.9 24.5 60
2021-10-08 02:00 39.73 1.13 1018.8 Null 340 21.9 24.3 61
2021-10-08 01:00 39.81 1.2 1019.1 Null 270 21.9 24.3 60
2021-10-08 00:00 39.9 1.28 1019.1 Null 270 21.8 24.2 60
2021-10-07 23:00 39.98 1.36 1019.4 Null 320 21.8 24.1 60
2021-10-07 22:00 40.07 1.43 1019.3 Null 330 21.5 24.3 63
2021-10-07 21:00 40.15 1.51 1019.1 Null 350 21.4 24.3 64
2021-10-07 20:00 40.23 1.58 1018.9 Null 350 21.2 23.9 63
2021-10-07 19:00 40.32 1.64 1018.8 Null 360 21.1 24.2 62
2021-10-07 18:00 40.39 1.71 1018.5 Null 360 20.8 24.2 60
2021-10-07 17:00 40.47 1.77 1018.2 Null 360 20.9 24.5 59
2021-10-07 16:00 40.54 1.84 1018.0 Null 10 21.0 24.6 54
2021-10-07 15:00 40.62 1.9 1018.4 Null 50 21.1 23.9 47
2021-10-07 14:00 40.7 1.96 1018.6 Null Null 20.5 22.7 72
2021-10-07 13:00 40.77 2.02 1019.4 Null 260 20.4 23.3 71
2021-10-07 12:00 40.81 2.05 1020.1 Null 280 20.0 22.8 69
2021-10-07 11:00 40.89 2.13 1020.9 Null 290 20.2 23.4 67
2021-10-07 10:00 40.97 2.22 1021.1 Null Null 20.3 23.9 66
2021-10-06 20:00 42.14 3.94 1022.1 Null 110 19.1 20.2 52
2021-10-06 19:00 42.29 4.07 1021.5 Null 100 19.0 20.3 53
2021-10-06 18:00 42.43 4.22 1020.6 Null 110 19.3 20.1 50
2021-10-06 17:00 42.57 4.36 1019.4 Null 90 19.4 20.7 48
2021-10-06 16:00 42.71 4.52 1019.2 Null 90 19.4 20.2 53
2021-10-06 15:00 42.83 4.64 1019.1 Null 100 19.7 19.9 51
2021-10-06 14:00 42.92 4.78 1019.2 Null 90 18.9 20.6 47
2021-10-06 13:00 43.02 4.93 1019.2 Null 90 18.7 21.0 45
2021-10-06 12:00 43.12 5.08 1018.9 Null 80 18.2 21.4 49
2021-10-06 11:00 43.23 5.24 1019.2 Null 80 17.5 21.1 52
2021-10-06 10:00 43.29 5.34 1019.4 Null 60 16.8 21.3 57
2021-10-06 09:00 43.3 5.37 1019.9 Null 50 16.6 19.9 53
2021-10-06 08:00 43.3 5.37 1020.2 Null 50 15.5 19.6 59
2021-10-06 07:00 43.3 5.37 1019.8 Null 50 15.2 19.6 62
2021-10-06 06:00 43.3 5.37 1019.4 Null 40 14.0 19.7 67
2021-10-06 05:00 43.3 5.37 1019.2 Null 50 14.3 19.7 68
2021-10-06 04:00 43.3 5.37 1019.0 Null 50 15.0 19.8 68
2021-10-06 03:00 43.3 5.37 1018.7 Null 50 14.9 20.0 67
2021-10-06 02:00 43.3 5.37 1018.5 Null 50 15.0 20.5 69
2021-10-06 01:00 43.3 5.37 1018.7 Null 70 15.2 20.0 69
2021-10-06 00:00 43.3 5.37 1018.7 Null 50 16.0 20.0 68